Baltasound, United Kingdom
Current Conditions -  °F | °C
As of 7:50 AM on Tuesday 21 Oct 2014 (Local Time) from EGPM Reporting Station
Moderate Rain Moderate Rain  
Wind Chill: 54°   Ceiling: 700
Heat Index: 54°   Visibility: 4mi
Dew Point: 52°   Wind: 20mph
Humidity: 94%   Direction: 160°SSE
Pressure: 28.91"   Gusts: NA
Location:  60.75°N, 0.85°W
Report Text: EGPM 210650Z 16017KT 6000 RA BKN007 BKN015 12/11 Q0979 TEMPO SCT007
Loading
Personal Weather Stations






























Interactive Weather Map
Tropical Storm Tracking
New forecast layout! Learn more

10-Day Weather Forecast

Advertisements
Track Severe Weather on mobile